sensor_id;sensor_type;location;lat;lon;timestamp;P1;durP1;ratioP1;P2;durP2;ratioP2
56541;SDS011;42438;53.174;6.730;2023-11-21T00:00:14;18.73;;;4.60;;
56541;SDS011;42438;53.174;6.730;2023-11-21T00:02:46;17.95;;;4.93;;
56541;SDS011;42438;53.174;6.730;2023-11-21T00:05:17;10.52;;;4.55;;
56541;SDS011;42438;53.174;6.730;2023-11-21T00:07:47;15.88;;;4.65;;
56541;SDS011;42438;53.174;6.730;2023-11-21T00:10:18;15.57;;;4.60;;
56541;SDS011;42438;53.174;6.730;2023-11-21T00:12:49;13.27;;;5.22;;
56541;SDS011;42438;53.174;6.730;2023-11-21T00:15:19;14.02;;;4.72;;
56541;SDS011;42438;53.174;6.730;2023-11-21T00:17:51;20.83;;;5.88;;
56541;SDS011;42438;53.174;6.730;2023-11-21T00:20:22;17.80;;;5.28;;
56541;SDS011;42438;53.174;6.730;2023-11-21T00:22:52;16.77;;;5.53;;
56541;SDS011;42438;53.174;6.730;2023-11-21T00:25:23;14.15;;;5.25;;
56541;SDS011;42438;53.174;6.730;2023-11-21T00:27:55;16.13;;;5.07;;
56541;SDS011;42438;53.174;6.730;2023-11-21T00:30:25;11.82;;;5.00;;
56541;SDS011;42438;53.174;6.730;2023-11-21T00:32:56;14.63;;;5.05;;
56541;SDS011;42438;53.174;6.730;2023-11-21T00:35:26;18.13;;;5.68;;
56541;SDS011;42438;53.174;6.730;2023-11-21T00:37:57;15.93;;;4.90;;
56541;SDS011;42438;53.174;6.730;2023-11-21T00:40:28;17.50;;;4.90;;
56541;SDS011;42438;53.174;6.730;2023-11-21T00:42:59;14.80;;;4.90;;
56541;SDS011;42438;53.174;6.730;2023-11-21T00:45:30;21.33;;;5.80;;
56541;SDS011;42438;53.174;6.730;2023-11-21T00:48:00;18.95;;;5.15;;
56541;SDS011;42438;53.174;6.730;2023-11-21T00:50:31;16.65;;;4.97;;
56541;SDS011;42438;53.174;6.730;2023-11-21T00:53:01;17.50;;;5.35;;
56541;SDS011;42438;53.174;6.730;2023-11-21T00:55:32;14.52;;;5.95;;
56541;SDS011;42438;53.174;6.730;2023-11-21T00:58:04;16.70;;;5.60;;
56541;SDS011;42438;53.174;6.730;2023-11-21T01:00:36;17.23;;;5.35;;
56541;SDS011;42438;53.174;6.730;2023-11-21T01:03:09;17.15;;;6.47;;
56541;SDS011;42438;53.174;6.730;2023-11-21T01:05:40;19.88;;;6.00;;
56541;SDS011;42438;53.174;6.730;2023-11-21T01:08:11;17.05;;;5.47;;
56541;SDS011;42438;53.174;6.730;2023-11-21T01:10:42;25.52;;;7.05;;
56541;SDS011;42438;53.174;6.730;2023-11-21T01:13:13;18.10;;;5.50;;
56541;SDS011;42438;53.174;6.730;2023-11-21T01:15:45;18.10;;;6.28;;
56541;SDS011;42438;53.174;6.730;2023-11-21T01:18:16;19.83;;;6.47;;
56541;SDS011;42438;53.174;6.730;2023-11-21T01:20:46;20.63;;;7.13;;
56541;SDS011;42438;53.174;6.730;2023-11-21T01:23:17;18.65;;;5.72;;
56541;SDS011;42438;53.174;6.730;2023-11-21T01:25:48;22.67;;;6.40;;
56541;SDS011;42438;53.174;6.730;2023-11-21T01:28:19;19.85;;;6.05;;
56541;SDS011;42438;53.174;6.730;2023-11-21T01:30:49;19.58;;;5.72;;
56541;SDS011;42438;53.174;6.730;2023-11-21T01:33:20;21.02;;;6.65;;
56541;SDS011;42438;53.174;6.730;2023-11-21T01:35:51;20.25;;;6.80;;
56541;SDS011;42438;53.174;6.730;2023-11-21T01:38:24;23.10;;;6.53;;
56541;SDS011;42438;53.174;6.730;2023-11-21T01:40:55;23.02;;;6.40;;
56541;SDS011;42438;53.174;6.730;2023-11-21T01:43:26;24.33;;;6.97;;
56541;SDS011;42438;53.174;6.730;2023-11-21T01:45:57;18.45;;;5.90;;
56541;SDS011;42438;53.174;6.730;2023-11-21T01:48:28;24.48;;;6.32;;
56541;SDS011;42438;53.174;6.730;2023-11-21T01:50:59;22.77;;;6.43;;
56541;SDS011;42438;53.174;6.730;2023-11-21T01:53:31;23.25;;;6.50;;
56541;SDS011;42438;53.174;6.730;2023-11-21T01:56:02;18.10;;;6.88;;
56541;SDS011;42438;53.174;6.730;2023-11-21T01:58:33;19.88;;;7.20;;
56541;SDS011;42438;53.174;6.730;2023-11-21T02:01:04;19.38;;;6.90;;
56541;SDS011;42438;53.174;6.730;2023-11-21T02:03:35;23.85;;;6.55;;
56541;SDS011;42438;53.174;6.730;2023-11-21T02:06:06;22.52;;;7.13;;
56541;SDS011;42438;53.174;6.730;2023-11-21T02:08:36;26.38;;;7.05;;
56541;SDS011;42438;53.174;6.730;2023-11-21T02:11:07;17.52;;;7.00;;
56541;SDS011;42438;53.174;6.730;2023-11-21T02:13:39;23.02;;;6.60;;
56541;SDS011;42438;53.174;6.730;2023-11-21T02:16:17;26.65;;;7.05;;
56541;SDS011;42438;53.174;6.730;2023-11-21T02:18:47;24.17;;;7.22;;
56541;SDS011;42438;53.174;6.730;2023-11-21T02:21:18;21.40;;;7.13;;
56541;SDS011;42438;53.174;6.730;2023-11-21T02:23:49;23.63;;;8.23;;
56541;SDS011;42438;53.174;6.730;2023-11-21T02:26:21;21.02;;;7.70;;
56541;SDS011;42438;53.174;6.730;2023-11-21T02:28:52;21.10;;;7.35;;
56541;SDS011;42438;53.174;6.730;2023-11-21T02:31:23;21.05;;;7.75;;
56541;SDS011;42438;53.174;6.730;2023-11-21T02:33:54;19.85;;;6.53;;
56541;SDS011;42438;53.174;6.730;2023-11-21T02:36:24;21.15;;;7.88;;
56541;SDS011;42438;53.174;6.730;2023-11-21T02:38:55;19.48;;;7.03;;
56541;SDS011;42438;53.174;6.730;2023-11-21T02:41:26;28.88;;;7.85;;
56541;SDS011;42438;53.174;6.730;2023-11-21T02:43:57;21.08;;;7.43;;
56541;SDS011;42438;53.174;6.730;2023-11-21T02:46:28;22.35;;;8.55;;
56541;SDS011;42438;53.174;6.730;2023-11-21T02:48:58;23.65;;;7.97;;
56541;SDS011;42438;53.174;6.730;2023-11-21T02:51:30;24.27;;;8.43;;
56541;SDS011;42438;53.174;6.730;2023-11-21T02:54:00;20.20;;;7.07;;
56541;SDS011;42438;53.174;6.730;2023-11-21T02:56:33;25.70;;;7.80;;
56541;SDS011;42438;53.174;6.730;2023-11-21T02:59:04;29.75;;;9.50;;
56541;SDS011;42438;53.174;6.730;2023-11-21T03:01:35;27.65;;;8.57;;
56541;SDS011;42438;53.174;6.730;2023-11-21T03:04:05;30.02;;;9.88;;
56541;SDS011;42438;53.174;6.730;2023-11-21T03:06:36;24.55;;;8.18;;
56541;SDS011;42438;53.174;6.730;2023-11-21T03:09:07;29.38;;;9.25;;
56541;SDS011;42438;53.174;6.730;2023-11-21T03:11:38;26.55;;;8.73;;
56541;SDS011;42438;53.174;6.730;2023-11-21T03:14:08;27.38;;;9.00;;
56541;SDS011;42438;53.174;6.730;2023-11-21T03:16:39;29.70;;;9.68;;
56541;SDS011;42438;53.174;6.730;2023-11-21T03:19:11;27.42;;;8.68;;
56541;SDS011;42438;53.174;6.730;2023-11-21T03:21:42;27.25;;;8.15;;
56541;SDS011;42438;53.174;6.730;2023-11-21T03:24:12;28.40;;;9.55;;
56541;SDS011;42438;53.174;6.730;2023-11-21T03:26:44;31.75;;;9.68;;
56541;SDS011;42438;53.174;6.730;2023-11-21T03:29:16;33.00;;;9.13;;
56541;SDS011;42438;53.174;6.730;2023-11-21T03:31:47;36.38;;;9.60;;
56541;SDS011;42438;53.174;6.730;2023-11-21T03:34:24;27.40;;;9.38;;
56541;SDS011;42438;53.174;6.730;2023-11-21T03:36:56;29.48;;;8.88;;
56541;SDS011;42438;53.174;6.730;2023-11-21T03:39:27;29.20;;;9.80;;
56541;SDS011;42438;53.174;6.730;2023-11-21T03:41:59;30.50;;;11.10;;
56541;SDS011;42438;53.174;6.730;2023-11-21T03:44:30;35.83;;;9.98;;
56541;SDS011;42438;53.174;6.730;2023-11-21T03:47:00;27.13;;;9.98;;
56541;SDS011;42438;53.174;6.730;2023-11-21T03:49:31;31.45;;;9.77;;
56541;SDS011;42438;53.174;6.730;2023-11-21T03:52:02;38.17;;;10.93;;
56541;SDS011;42438;53.174;6.730;2023-11-21T03:54:33;34.90;;;10.30;;
56541;SDS011;42438;53.174;6.730;2023-11-21T03:57:04;34.33;;;10.25;;
56541;SDS011;42438;53.174;6.730;2023-11-21T03:59:34;40.13;;;12.13;;
56541;SDS011;42438;53.174;6.730;2023-11-21T04:02:05;33.67;;;10.60;;
56541;SDS011;42438;53.174;6.730;2023-11-21T04:04:37;33.90;;;11.38;;
56541;SDS011;42438;53.174;6.730;2023-11-21T04:07:08;39.63;;;11.45;;
56541;SDS011;42438;53.174;6.730;2023-11-21T04:09:39;32.78;;;10.95;;
56541;SDS011;42438;53.174;6.730;2023-11-21T04:12:11;32.70;;;11.68;;
56541;SDS011;42438;53.174;6.730;2023-11-21T04:14:41;38.70;;;10.45;;
56541;SDS011;42438;53.174;6.730;2023-11-21T04:17:12;35.22;;;11.50;;
56541;SDS011;42438;53.174;6.730;2023-11-21T04:19:43;36.90;;;12.15;;
56541;SDS011;42438;53.174;6.730;2023-11-21T04:22:13;42.47;;;12.10;;
56541;SDS011;42438;53.174;6.730;2023-11-21T04:24:44;42.33;;;12.60;;
56541;SDS011;42438;53.174;6.730;2023-11-21T04:27:14;35.72;;;11.75;;
56541;SDS011;42438;53.174;6.730;2023-11-21T04:29:48;41.88;;;12.57;;
56541;SDS011;42438;53.174;6.730;2023-11-21T04:32:19;35.80;;;11.23;;
56541;SDS011;42438;53.174;6.730;2023-11-21T04:34:49;27.50;;;8.80;;
56541;SDS011;42438;53.174;6.730;2023-11-21T04:37:20;38.97;;;11.05;;
56541;SDS011;42438;53.174;6.730;2023-11-21T04:39:50;38.47;;;11.85;;
56541;SDS011;42438;53.174;6.730;2023-11-21T04:42:22;35.88;;;11.05;;
56541;SDS011;42438;53.174;6.730;2023-11-21T04:44:52;41.83;;;9.80;;
56541;SDS011;42438;53.174;6.730;2023-11-21T04:47:23;31.33;;;10.43;;
56541;SDS011;42438;53.174;6.730;2023-11-21T04:49:53;36.45;;;10.32;;
56541;SDS011;42438;53.174;6.730;2023-11-21T04:52:24;31.23;;;11.35;;
56541;SDS011;42438;53.174;6.730;2023-11-21T04:54:55;34.05;;;11.25;;
56541;SDS011;42438;53.174;6.730;2023-11-21T04:57:27;29.90;;;9.93;;
56541;SDS011;42438;53.174;6.730;2023-11-21T04:59:58;29.75;;;10.07;;
56541;SDS011;42438;53.174;6.730;2023-11-21T05:02:29;32.08;;;11.02;;
56541;SDS011;42438;53.174;6.730;2023-11-21T05:05:00;35.70;;;10.43;;
56541;SDS011;42438;53.174;6.730;2023-11-21T05:07:31;31.90;;;10.63;;
56541;SDS011;42438;53.174;6.730;2023-11-21T05:10:03;29.02;;;9.60;;
56541;SDS011;42438;53.174;6.730;2023-11-21T05:12:38;24.63;;;9.75;;
56541;SDS011;42438;53.174;6.730;2023-11-21T05:15:09;30.42;;;11.02;;
56541;SDS011;42438;53.174;6.730;2023-11-21T05:17:44;32.47;;;9.38;;
56541;SDS011;42438;53.174;6.730;2023-11-21T05:20:15;30.85;;;10.38;;
56541;SDS011;42438;53.174;6.730;2023-11-21T05:22:52;27.77;;;9.35;;
56541;SDS011;42438;53.174;6.730;2023-11-21T05:25:22;26.58;;;9.25;;
56541;SDS011;42438;53.174;6.730;2023-11-21T05:27:53;23.67;;;8.02;;
56541;SDS011;42438;53.174;6.730;2023-11-21T05:30:25;23.60;;;8.50;;
56541;SDS011;42438;53.174;6.730;2023-11-21T05:32:56;22.13;;;7.57;;
56541;SDS011;42438;53.174;6.730;2023-11-21T05:35:26;21.25;;;7.57;;
56541;SDS011;42438;53.174;6.730;2023-11-21T05:37:57;23.58;;;8.02;;
56541;SDS011;42438;53.174;6.730;2023-11-21T05:40:28;21.40;;;7.85;;
56541;SDS011;42438;53.174;6.730;2023-11-21T05:43:00;22.35;;;8.63;;
56541;SDS011;42438;53.174;6.730;2023-11-21T05:45:30;21.33;;;7.78;;
56541;SDS011;42438;53.174;6.730;2023-11-21T05:48:01;23.60;;;8.88;;
56541;SDS011;42438;53.174;6.730;2023-11-21T05:50:32;19.10;;;7.60;;
56541;SDS011;42438;53.174;6.730;2023-11-21T05:53:03;24.77;;;8.48;;
56541;SDS011;42438;53.174;6.730;2023-11-21T05:55:34;17.73;;;8.27;;
56541;SDS011;42438;53.174;6.730;2023-11-21T05:58:05;26.42;;;9.52;;
56541;SDS011;42438;53.174;6.730;2023-11-21T06:00:37;25.80;;;9.80;;
56541;SDS011;42438;53.174;6.730;2023-11-21T06:03:09;23.35;;;8.15;;
56541;SDS011;42438;53.174;6.730;2023-11-21T06:05:40;24.80;;;9.77;;
56541;SDS011;42438;53.174;6.730;2023-11-21T06:08:10;28.92;;;9.73;;
56541;SDS011;42438;53.174;6.730;2023-11-21T06:10:41;22.55;;;8.85;;
56541;SDS011;42438;53.174;6.730;2023-11-21T06:13:13;26.23;;;9.27;;
56541;SDS011;42438;53.174;6.730;2023-11-21T06:15:44;22.90;;;9.37;;
56541;SDS011;42438;53.174;6.730;2023-11-21T06:18:14;28.42;;;10.23;;
56541;SDS011;42438;53.174;6.730;2023-11-21T06:20:46;27.05;;;9.60;;
56541;SDS011;42438;53.174;6.730;2023-11-21T06:23:17;32.17;;;9.98;;
56541;SDS011;42438;53.174;6.730;2023-11-21T06:25:47;27.13;;;8.32;;
56541;SDS011;42438;53.174;6.730;2023-11-21T06:28:18;26.90;;;9.35;;
56541;SDS011;42438;53.174;6.730;2023-11-21T06:30:49;24.33;;;8.77;;
56541;SDS011;42438;53.174;6.730;2023-11-21T06:33:20;21.83;;;7.82;;
56541;SDS011;42438;53.174;6.730;2023-11-21T06:35:51;21.70;;;8.05;;
56541;SDS011;42438;53.174;6.730;2023-11-21T06:38:22;25.10;;;7.78;;
56541;SDS011;42438;53.174;6.730;2023-11-21T06:40:53;25.67;;;7.78;;
56541;SDS011;42438;53.174;6.730;2023-11-21T06:43:24;21.27;;;7.93;;
56541;SDS011;42438;53.174;6.730;2023-11-21T06:45:57;21.73;;;7.40;;
56541;SDS011;42438;53.174;6.730;2023-11-21T06:48:27;22.33;;;7.78;;
56541;SDS011;42438;53.174;6.730;2023-11-21T06:51:00;22.80;;;8.03;;
56541;SDS011;42438;53.174;6.730;2023-11-21T06:53:30;19.70;;;7.95;;
56541;SDS011;42438;53.174;6.730;2023-11-21T06:56:01;20.45;;;8.75;;
56541;SDS011;42438;53.174;6.730;2023-11-21T06:58:32;23.90;;;7.78;;
56541;SDS011;42438;53.174;6.730;2023-11-21T07:01:04;23.35;;;8.63;;
56541;SDS011;42438;53.174;6.730;2023-11-21T07:03:37;26.27;;;8.95;;
56541;SDS011;42438;53.174;6.730;2023-11-21T07:06:08;22.60;;;8.13;;
56541;SDS011;42438;53.174;6.730;2023-11-21T07:08:38;22.73;;;8.80;;
56541;SDS011;42438;53.174;6.730;2023-11-21T07:11:09;20.92;;;7.65;;
56541;SDS011;42438;53.174;6.730;2023-11-21T07:13:40;17.45;;;7.95;;
56541;SDS011;42438;53.174;6.730;2023-11-21T07:16:11;22.02;;;8.98;;
56541;SDS011;42438;53.174;6.730;2023-11-21T07:18:42;25.42;;;9.00;;
56541;SDS011;42438;53.174;6.730;2023-11-21T07:21:12;21.02;;;8.32;;
56541;SDS011;42438;53.174;6.730;2023-11-21T07:23:43;22.63;;;8.88;;
56541;SDS011;42438;53.174;6.730;2023-11-21T07:26:14;25.35;;;9.43;;
56541;SDS011;42438;53.174;6.730;2023-11-21T07:28:44;24.83;;;9.27;;
56541;SDS011;42438;53.174;6.730;2023-11-21T07:31:15;28.50;;;10.77;;
56541;SDS011;42438;53.174;6.730;2023-11-21T07:33:46;30.08;;;10.63;;
56541;SDS011;42438;53.174;6.730;2023-11-21T07:36:19;27.52;;;10.02;;
56541;SDS011;42438;53.174;6.730;2023-11-21T07:38:53;28.02;;;10.95;;
56541;SDS011;42438;53.174;6.730;2023-11-21T07:41:24;25.52;;;11.55;;
56541;SDS011;42438;53.174;6.730;2023-11-21T07:43:55;22.60;;;9.93;;
56541;SDS011;42438;53.174;6.730;2023-11-21T07:46:26;23.42;;;10.05;;
56541;SDS011;42438;53.174;6.730;2023-11-21T07:48:57;24.58;;;9.77;;
56541;SDS011;42438;53.174;6.730;2023-11-21T07:51:28;22.88;;;10.48;;
56541;SDS011;42438;53.174;6.730;2023-11-21T07:53:58;30.27;;;11.93;;
56541;SDS011;42438;53.174;6.730;2023-11-21T07:56:29;30.83;;;11.35;;
56541;SDS011;42438;53.174;6.730;2023-11-21T07:59:00;30.95;;;10.30;;
56541;SDS011;42438;53.174;6.730;2023-11-21T08:01:30;23.73;;;11.05;;
56541;SDS011;42438;53.174;6.730;2023-11-21T08:04:04;25.00;;;10.60;;
56541;SDS011;42438;53.174;6.730;2023-11-21T08:06:34;29.77;;;11.75;;
56541;SDS011;42438;53.174;6.730;2023-11-21T08:09:05;28.45;;;11.50;;
56541;SDS011;42438;53.174;6.730;2023-11-21T08:11:38;27.55;;;12.45;;
56541;SDS011;42438;53.174;6.730;2023-11-21T08:14:09;28.23;;;11.60;;
56541;SDS011;42438;53.174;6.730;2023-11-21T08:16:39;28.58;;;13.02;;
56541;SDS011;42438;53.174;6.730;2023-11-21T08:19:10;30.20;;;12.75;;
56541;SDS011;42438;53.174;6.730;2023-11-21T08:21:41;24.75;;;12.02;;
56541;SDS011;42438;53.174;6.730;2023-11-21T08:24:11;28.90;;;12.10;;
56541;SDS011;42438;53.174;6.730;2023-11-21T08:26:42;30.67;;;12.30;;
56541;SDS011;42438;53.174;6.730;2023-11-21T08:29:13;26.05;;;12.60;;
56541;SDS011;42438;53.174;6.730;2023-11-21T08:31:43;25.60;;;12.32;;
56541;SDS011;42438;53.174;6.730;2023-11-21T08:34:16;23.95;;;12.45;;
56541;SDS011;42438;53.174;6.730;2023-11-21T08:36:47;24.40;;;12.32;;
56541;SDS011;42438;53.174;6.730;2023-11-21T08:39:18;22.02;;;10.93;;
56541;SDS011;42438;53.174;6.730;2023-11-21T08:41:49;24.88;;;12.02;;
56541;SDS011;42438;53.174;6.730;2023-11-21T08:44:23;22.70;;;11.73;;
56541;SDS011;42438;53.174;6.730;2023-11-21T08:46:55;21.33;;;10.23;;
56541;SDS011;42438;53.174;6.730;2023-11-21T08:49:25;23.35;;;10.90;;
56541;SDS011;42438;53.174;6.730;2023-11-21T08:51:58;22.48;;;10.38;;
56541;SDS011;42438;53.174;6.730;2023-11-21T08:54:29;19.05;;;10.32;;
56541;SDS011;42438;53.174;6.730;2023-11-21T08:57:01;21.90;;;9.90;;
56541;SDS011;42438;53.174;6.730;2023-11-21T08:59:32;20.63;;;10.32;;
56541;SDS011;42438;53.174;6.730;2023-11-21T09:02:03;20.77;;;10.40;;
56541;SDS011;42438;53.174;6.730;2023-11-21T09:04:33;20.88;;;10.27;;
56541;SDS011;42438;53.174;6.730;2023-11-21T09:07:04;20.55;;;10.75;;
56541;SDS011;42438;53.174;6.730;2023-11-21T09:09:35;21.13;;;10.55;;
56541;SDS011;42438;53.174;6.730;2023-11-21T09:12:06;21.80;;;10.20;;
56541;SDS011;42438;53.174;6.730;2023-11-21T09:14:36;23.13;;;11.05;;
56541;SDS011;42438;53.174;6.730;2023-11-21T09:17:07;21.25;;;9.90;;
56541;SDS011;42438;53.174;6.730;2023-11-21T09:19:43;21.20;;;10.88;;
56541;SDS011;42438;53.174;6.730;2023-11-21T09:22:15;20.00;;;10.32;;
56541;SDS011;42438;53.174;6.730;2023-11-21T09:24:47;21.25;;;9.55;;
56541;SDS011;42438;53.174;6.730;2023-11-21T09:27:19;19.75;;;10.25;;
56541;SDS011;42438;53.174;6.730;2023-11-21T09:29:51;17.48;;;9.52;;
56541;SDS011;42438;53.174;6.730;2023-11-21T09:32:23;18.40;;;9.35;;
56541;SDS011;42438;53.174;6.730;2023-11-21T09:34:54;19.13;;;9.40;;
56541;SDS011;42438;53.174;6.730;2023-11-21T09:37:28;16.33;;;8.55;;
56541;SDS011;42438;53.174;6.730;2023-11-21T09:39:58;18.88;;;8.35;;
56541;SDS011;42438;53.174;6.730;2023-11-21T09:42:30;16.15;;;8.50;;
56541;SDS011;42438;53.174;6.730;2023-11-21T09:45:25;17.73;;;8.52;;
56541;SDS011;42438;53.174;6.730;2023-11-21T09:47:57;16.35;;;8.07;;
56541;SDS011;42438;53.174;6.730;2023-11-21T09:50:28;16.80;;;8.05;;
56541;SDS011;42438;53.174;6.730;2023-11-21T09:53:11;16.50;;;8.00;;
56541;SDS011;42438;53.174;6.730;2023-11-21T09:55:54;14.13;;;7.95;;
56541;SDS011;42438;53.174;6.730;2023-11-21T09:58:24;14.90;;;7.68;;
56541;SDS011;42438;53.174;6.730;2023-11-21T10:00:57;11.70;;;6.18;;
56541;SDS011;42438;53.174;6.730;2023-11-21T10:03:35;14.27;;;7.20;;
56541;SDS011;42438;53.174;6.730;2023-11-21T10:06:08;11.75;;;5.80;;
56541;SDS011;42438;53.174;6.730;2023-11-21T10:08:40;12.80;;;6.80;;
56541;SDS011;42438;53.174;6.730;2023-11-21T10:11:11;13.50;;;6.78;;
56541;SDS011;42438;53.174;6.730;2023-11-21T10:13:44;15.57;;;6.63;;
56541;SDS011;42438;53.174;6.730;2023-11-21T10:16:17;14.20;;;7.13;;
56541;SDS011;42438;53.174;6.730;2023-11-21T10:18:51;13.52;;;6.32;;
56541;SDS011;42438;53.174;6.730;2023-11-21T10:21:25;11.75;;;6.65;;
56541;SDS011;42438;53.174;6.730;2023-11-21T10:23:56;12.13;;;6.38;;
56541;SDS011;42438;53.174;6.730;2023-11-21T10:26:28;10.55;;;5.95;;
56541;SDS011;42438;53.174;6.730;2023-11-21T10:28:59;11.30;;;6.30;;
56541;SDS011;42438;53.174;6.730;2023-11-21T10:31:30;13.30;;;6.28;;
56541;SDS011;42438;53.174;6.730;2023-11-21T10:34:12;13.40;;;6.70;;
56541;SDS011;42438;53.174;6.730;2023-11-21T10:36:50;10.75;;;5.47;;
56541;SDS011;42438;53.174;6.730;2023-11-21T10:39:20;11.95;;;6.10;;
56541;SDS011;42438;53.174;6.730;2023-11-21T10:41:54;12.57;;;6.15;;
56541;SDS011;42438;53.174;6.730;2023-11-21T10:44:26;12.27;;;6.07;;
56541;SDS011;42438;53.174;6.730;2023-11-21T10:46:56;9.15;;;5.63;;
56541;SDS011;42438;53.174;6.730;2023-11-21T10:49:27;11.25;;;6.35;;
56541;SDS011;42438;53.174;6.730;2023-11-21T10:51:59;11.55;;;6.10;;
56541;SDS011;42438;53.174;6.730;2023-11-21T10:54:29;12.52;;;6.00;;
56541;SDS011;42438;53.174;6.730;2023-11-21T10:57:00;11.23;;;6.95;;
56541;SDS011;42438;53.174;6.730;2023-11-21T10:59:32;10.30;;;6.18;;
56541;SDS011;42438;53.174;6.730;2023-11-21T11:02:10;12.65;;;5.95;;
56541;SDS011;42438;53.174;6.730;2023-11-21T11:04:57;11.55;;;5.55;;
56541;SDS011;42438;53.174;6.730;2023-11-21T11:07:31;9.55;;;5.07;;
56541;SDS011;42438;53.174;6.730;2023-11-21T11:10:04;10.45;;;5.60;;
56541;SDS011;42438;53.174;6.730;2023-11-21T11:12:38;12.45;;;5.53;;
56541;SDS011;42438;53.174;6.730;2023-11-21T11:15:12;8.38;;;4.72;;
56541;SDS011;42438;53.174;6.730;2023-11-21T11:17:44;8.75;;;4.78;;
56541;SDS011;42438;53.174;6.730;2023-11-21T11:20:16;9.52;;;5.00;;
56541;SDS011;42438;53.174;6.730;2023-11-21T11:22:50;7.60;;;4.40;;
56541;SDS011;42438;53.174;6.730;2023-11-21T11:25:38;9.52;;;4.85;;
56541;SDS011;42438;53.174;6.730;2023-11-21T11:28:40;8.10;;;4.63;;
56541;SDS011;42438;53.174;6.730;2023-11-21T11:36:57;10.13;;;5.10;;
56541;SDS011;42438;53.174;6.730;2023-11-21T11:39:30;9.48;;;5.22;;
56541;SDS011;42438;53.174;6.730;2023-11-21T11:42:07;10.43;;;5.10;;
56541;SDS011;42438;53.174;6.730;2023-11-21T11:47:22;9.43;;;5.03;;
56541;SDS011;42438;53.174;6.730;2023-11-21T11:52:38;11.90;;;5.30;;
56541;SDS011;42438;53.174;6.730;2023-11-21T11:55:21;9.63;;;5.05;;
56541;SDS011;42438;53.174;6.730;2023-11-21T11:57:54;9.55;;;5.28;;
56541;SDS011;42438;53.174;6.730;2023-11-21T12:03:07;9.60;;;4.90;;
56541;SDS011;42438;53.174;6.730;2023-11-21T12:05:38;8.48;;;4.80;;
56541;SDS011;42438;53.174;6.730;2023-11-21T12:08:13;8.43;;;4.78;;
56541;SDS011;42438;53.174;6.730;2023-11-21T12:10:46;10.02;;;4.70;;
56541;SDS011;42438;53.174;6.730;2023-11-21T12:13:18;9.23;;;4.80;;
56541;SDS011;42438;53.174;6.730;2023-11-21T12:15:49;9.93;;;5.32;;
56541;SDS011;42438;53.174;6.730;2023-11-21T12:18:20;9.35;;;4.97;;
56541;SDS011;42438;53.174;6.730;2023-11-21T12:20:51;8.10;;;4.80;;
56541;SDS011;42438;53.174;6.730;2023-11-21T12:23:22;9.80;;;4.80;;
56541;SDS011;42438;53.174;6.730;2023-11-21T12:25:53;7.55;;;4.47;;
56541;SDS011;42438;53.174;6.730;2023-11-21T12:28:23;8.55;;;4.93;;
56541;SDS011;42438;53.174;6.730;2023-11-21T12:30:54;8.98;;;4.95;;
56541;SDS011;42438;53.174;6.730;2023-11-21T12:33:24;9.20;;;5.20;;
56541;SDS011;42438;53.174;6.730;2023-11-21T12:35:55;8.77;;;4.70;;
56541;SDS011;42438;53.174;6.730;2023-11-21T12:38:33;10.10;;;5.53;;
56541;SDS011;42438;53.174;6.730;2023-11-21T12:41:05;8.45;;;4.63;;
56541;SDS011;42438;53.174;6.730;2023-11-21T12:43:36;7.80;;;4.57;;
56541;SDS011;42438;53.174;6.730;2023-11-21T12:46:10;9.85;;;4.53;;
56541;SDS011;42438;53.174;6.730;2023-11-21T12:48:41;9.95;;;5.38;;
56541;SDS011;42438;53.174;6.730;2023-11-21T12:51:15;13.15;;;5.13;;
56541;SDS011;42438;53.174;6.730;2023-11-21T12:53:46;10.63;;;5.30;;
56541;SDS011;42438;53.174;6.730;2023-11-21T12:56:18;9.93;;;5.72;;
56541;SDS011;42438;53.174;6.730;2023-11-21T12:58:53;10.48;;;5.25;;
56541;SDS011;42438;53.174;6.730;2023-11-21T13:01:27;11.95;;;4.97;;
56541;SDS011;42438;53.174;6.730;2023-11-21T13:03:59;9.48;;;5.00;;
56541;SDS011;42438;53.174;6.730;2023-11-21T13:06:32;10.85;;;5.82;;
56541;SDS011;42438;53.174;6.730;2023-11-21T13:09:08;8.60;;;5.47;;
56541;SDS011;42438;53.174;6.730;2023-11-21T13:11:47;9.57;;;5.35;;
56541;SDS011;42438;53.174;6.730;2023-11-21T13:14:18;12.68;;;6.18;;
56541;SDS011;42438;53.174;6.730;2023-11-21T13:16:48;9.20;;;5.07;;
56541;SDS011;42438;53.174;6.730;2023-11-21T13:19:19;8.90;;;5.45;;
56541;SDS011;42438;53.174;6.730;2023-11-21T13:21:52;7.75;;;5.20;;
56541;SDS011;42438;53.174;6.730;2023-11-21T13:24:22;9.70;;;5.00;;
56541;SDS011;42438;53.174;6.730;2023-11-21T13:26:53;8.38;;;4.85;;
56541;SDS011;42438;53.174;6.730;2023-11-21T13:29:24;7.80;;;4.38;;
56541;SDS011;42438;53.174;6.730;2023-11-21T13:31:56;9.30;;;5.03;;
56541;SDS011;42438;53.174;6.730;2023-11-21T13:34:26;10.57;;;5.10;;
56541;SDS011;42438;53.174;6.730;2023-11-21T13:36:57;8.13;;;4.45;;
56541;SDS011;42438;53.174;6.730;2023-11-21T13:39:30;8.70;;;4.07;;
56541;SDS011;42438;53.174;6.730;2023-11-21T13:42:02;8.52;;;4.30;;
56541;SDS011;42438;53.174;6.730;2023-11-21T13:44:33;11.52;;;5.65;;
56541;SDS011;42438;53.174;6.730;2023-11-21T13:47:08;8.45;;;4.47;;
56541;SDS011;42438;53.174;6.730;2023-11-21T13:49:39;10.63;;;5.05;;
56541;SDS011;42438;53.174;6.730;2023-11-21T13:52:11;10.90;;;5.05;;
56541;SDS011;42438;53.174;6.730;2023-11-21T13:54:45;10.40;;;4.97;;
56541;SDS011;42438;53.174;6.730;2023-11-21T13:57:17;10.95;;;5.25;;
56541;SDS011;42438;53.174;6.730;2023-11-21T13:59:48;8.75;;;5.35;;
56541;SDS011;42438;53.174;6.730;2023-11-21T14:02:19;8.90;;;4.90;;
56541;SDS011;42438;53.174;6.730;2023-11-21T14:04:51;10.27;;;5.28;;
56541;SDS011;42438;53.174;6.730;2023-11-21T14:07:26;10.38;;;5.50;;
56541;SDS011;42438;53.174;6.730;2023-11-21T14:10:05;8.07;;;4.70;;
56541;SDS011;42438;53.174;6.730;2023-11-21T14:12:43;10.80;;;5.70;;
56541;SDS011;42438;53.174;6.730;2023-11-21T14:15:14;11.07;;;5.38;;
56541;SDS011;42438;53.174;6.730;2023-11-21T14:17:48;10.45;;;5.10;;
56541;SDS011;42438;53.174;6.730;2023-11-21T14:20:19;9.48;;;5.10;;
56541;SDS011;42438;53.174;6.730;2023-11-21T14:22:51;9.40;;;5.32;;
56541;SDS011;42438;53.174;6.730;2023-11-21T14:25:22;9.43;;;5.18;;
56541;SDS011;42438;53.174;6.730;2023-11-21T14:27:52;9.63;;;5.47;;
56541;SDS011;42438;53.174;6.730;2023-11-21T14:30:23;6.75;;;4.78;;
56541;SDS011;42438;53.174;6.730;2023-11-21T14:32:55;10.15;;;4.75;;
56541;SDS011;42438;53.174;6.730;2023-11-21T14:35:26;6.65;;;4.10;;
56541;SDS011;42438;53.174;6.730;2023-11-21T14:37:56;8.27;;;4.55;;
56541;SDS011;42438;53.174;6.730;2023-11-21T14:40:29;9.05;;;4.80;;
56541;SDS011;42438;53.174;6.730;2023-11-21T14:43:03;6.28;;;3.90;;
56541;SDS011;42438;53.174;6.730;2023-11-21T14:45:36;8.20;;;4.40;;
56541;SDS011;42438;53.174;6.730;2023-11-21T14:48:07;8.82;;;4.60;;
56541;SDS011;42438;53.174;6.730;2023-11-21T14:50:45;9.40;;;4.90;;
56541;SDS011;42438;53.174;6.730;2023-11-21T14:56:13;10.40;;;7.20;;
56541;SDS011;42438;53.174;6.730;2023-11-21T14:58:53;11.18;;;6.57;;
56541;SDS011;42438;53.174;6.730;2023-11-21T15:01:26;12.38;;;7.25;;
56541;SDS011;42438;53.174;6.730;2023-11-21T15:04:16;13.18;;;7.63;;
56541;SDS011;42438;53.174;6.730;2023-11-21T15:06:58;13.20;;;6.68;;
56541;SDS011;42438;53.174;6.730;2023-11-21T15:09:29;9.77;;;6.63;;
56541;SDS011;42438;53.174;6.730;2023-11-21T15:12:03;8.77;;;5.93;;
56541;SDS011;42438;53.174;6.730;2023-11-21T15:14:44;17.20;;;9.40;;
56541;SDS011;42438;53.174;6.730;2023-11-21T15:17:18;10.30;;;6.90;;